LIRP/PSA METAR and TAF weather

Enter ICAO airport designator
Station Type Date Time Source
LIRP METAR 2020/04/04 21:15 UTC NOAA

LIRP 042115Z VRB01KT CAVOK 07/03 Q1022 NOSIG


Station Type Date Time Source
LIRP Decoded METAR 2020/04/04 21:15 UTC NOAA

Pisa / S. Giusto, Italy (LIRP) 43-41N 010-23E 6M
Apr 04, 2020 - 05:15 PM EDT / 2020.04.04 2115 UTC
Wind: Variable at 1 MPH (1 KT):0
Visibility: greater than 7 mile(s):0
Temperature: 44 F (7 C)
Dew Point: 37 F (3 C)
Relative Humidity: 75%
Pressure (altimeter): 30.18 in. Hg (1022 hPa)
ob: LIRP 042115Z VRB01KT CAVOK 07/03 Q1022 NOSIG
cycle: 21

Station Type Date Time Source
LIRP TAF 2020/04/04 18:25 UTC NOAA

TAF LIRP 041700Z 0418/0518 30009KT CAVOK
BECMG 0419/0420 10004KT
BECMG 0509/0510 07013KT

Example: see airport list